Terminal Aerodrome Forecast
Issued by NWS

Home | Current Version | Previous Version | Text Only | Print | Product List | Glossary On
Versions: 1 2 3 4 5 6 7 8 9 10 11 12 13 14 15 16 17 18 19 20 21 22 23
604
FTUS41 KOKX 170609 AAA
TAFSWF
TAF AMD
KSWF 170609Z 1706/1812 26005KT P6SM OVC070
     FM171300 VRB02KT 6SM -RA BKN030 OVC060
     FM171600 VRB04KT 2SM -RA BR BKN007 OVC010
     FM180000 VRB04KT 1SM -RA BR OVC005
     FM180500 VRB03KT 3SM -RA BR BKN008
      AMD NOT SKED=

USA.gov is the U.S. government's official web portal to all federal, state and local government web resources and services.